• Join FlightAware (Why Join?)
  • Login
  • US Flag 
Trick or treat! (Boo!!) 
01:55AM EDT


 

Airport Tracker/Info


-or-


 

Live Flight TrackerFlight Track Log ✈ SKW5229 ✈ 12-Jul-2013 ✈ KBRO - KIAH

Flight Track Log - Related Links

Times and Time Zones

All times are in EDT time to prevent confusion due to time zone crossing. See the SKW5229 flight status page for this flight to view local times or setup timezone preferences in your user account.

Time Position Orientation Groundspeed Altitude Reporting Facility
EDT Latitude Longitude Course Direction KTS MPH feet Rate Location/Type
12:06PM 25.9353 -97.3803 29° Northeast 224 258 2,400  Level Houston Center
12:07PM 26.0019 -97.3786 North 250 288 4,100 2,400 Climbing Houston Center
12:08PM 26.0800 -97.3831 357° North 277 319 7,100 2,640 Climbing Houston Center
12:09PM 26.4306 -97.4167 North  Level FlightAware Approximate
12:09PM 26.1672 -97.3853 359° North 290 334 9,700  Level Houston Center
12:10PM 26.5368 -97.4167 North  Level FlightAware Approximate
12:10PM 26.2533 -97.3889 358° North 306 352 12,000  Level Houston Center
12:11PM 26.3331 -97.4467 327° Northwest 318 366 14,400 1,440 Climbing Houston Center
12:12PM 26.4078 -97.5089 323° Northwest 333 383 15,000 540 Climbing Houston Center
12:13PM 26.4997 -97.5783 326° Northwest 369 425 15,600 900 Climbing Houston Center
12:14PM 26.6031 -97.5747 North 376 433 16,900 900 Climbing Houston Center
12:15PM 26.6983 -97.5617 North 375 432 17,400 -1,200 Climbing Houston Center
12:16PM 26.7967 -97.6022 340° North 373 429 14,500 -2,580 Descending Houston Center
12:17PM 26.7986 -97.6911 271° West 346 398 12,200 -2,280 Descending Houston Center
12:18PM 26.7286 -97.7639 223° Southwest 317 365 10,300 -1,860 Descending Houston Center
12:19PM 26.6689 -97.8142 217° Southwest 263 303 8,500 -2,160 Descending Houston Center
12:20PM 26.6108 -97.8617 216° Southwest 254 292 6,000 -2,460 Descending Houston Center
12:21PM 26.5550 -97.9111 218° Southwest 257 296 3,500 -1,500 Descending Houston Center
12:22PM 26.4969 -97.9583 216° Southwest 260 299 3,000 -720 Descending Houston Center
12:23PM 26.4394 -98.0103 219° Southwest 251 289 2,100 -540 Descending Houston Center
12:24PM 26.3872 -98.0547 217° Southwest 240 276 2,000 -60 Descending Houston Center
12:25PM 26.3333 -98.1014 218° Southwest 231 266 2,000  Level Houston Center
12:26PM 26.2975 -98.1597 236° Southwest 228 262 2,000  Level Houston Center
12:27PM 26.2836 -98.2292 257° West 209 241 2,000 -360 Level Houston Center
12:28PM 26.2489 -98.2569 216° Southwest 164 189 1,400 -600 Descending Houston Center
12:30PM 26.1967 -98.2600 183° South 150 173 600 -600 Descending Houston Center
12:32PM 26.3543 -98.1916 21° North  Level FlightAware Approximate
12:39PM 26.8488 -97.8171 22° Northeast  Level Estimated
12:40PM 26.9193 -97.7633 23° Northeast  Level Estimated
12:41PM 27.0032 -97.7460 10° North  Level FlightAware Approximate
12:42PM 27.0871 -97.7287 10° North  Level FlightAware Approximate
12:43PM 27.1710 -97.7113 10° North  Level FlightAware Approximate
12:44PM 27.2549 -97.6940 10° North  Level FlightAware Approximate
12:45PM 27.3388 -97.6766 10° North  Level FlightAware Approximate
12:46PM 27.4068 -97.6185 31° Northeast  Level Estimated
12:47PM 27.4747 -97.5603 22° Northeast  Level Estimated
12:48PM 27.5595 -97.5501 North  Level FlightAware Approximate
12:49PM 27.6266 -97.4908 24° Northeast  Level Estimated
12:50PM 27.7105 -97.4732 11° North  Level FlightAware Approximate
12:51PM 27.7769 -97.4127 39° Northeast  Level Estimated
12:52PM 27.8549 -97.3735 24° Northeast  Level FlightAware Approximate
12:53PM 27.9328 -97.3343 24° Northeast  Level FlightAware Approximate
12:54PM 27.9983 -97.2723 41° Northeast  Level Estimated
12:55PM 28.0727 -97.2251 29° Northeast  Level FlightAware Approximate
12:56PM 28.1377 -97.1625 38° Northeast  Level Estimated
12:57PM 28.2095 -97.1102 33° Northeast  Level FlightAware Approximate
12:58PM 28.2813 -97.0579 33° Northeast  Level FlightAware Approximate
12:59PM 28.3457 -96.9944 33° Northeast  Level Estimated
01:00PM 28.4101 -96.9308 61° Northeast  Level Estimated
01:01PM 28.4580 -96.8505 56° Northeast  Level FlightAware Approximate
01:02PM 28.5058 -96.7701 56° Northeast  Level FlightAware Approximate
01:03PM 28.5536 -96.6897 56° Northeast  Level FlightAware Approximate
01:04PM 28.6198 -96.6284 62° Northeast  Level Estimated
01:05PM 28.6550 -96.5399 66° East  Level FlightAware Approximate
01:06PM 28.6902 -96.4513 66° East  Level FlightAware Approximate
01:07PM 28.7587 -96.3934 North  Level Estimated
01:08PM 28.8273 -96.3354 12° North  Level Estimated
01:09PM 28.9056 -96.2968 23° Northeast  Level FlightAware Approximate
01:10PM 28.9733 -96.2375 North  Level Estimated
01:11PM 29.0410 -96.1782 12° North  Level Estimated
01:12PM 29.1087 -96.1188 North  Level Estimated
01:13PM 29.1901 -96.1482 343° North  Level FlightAware Approximate
01:14PM 29.2542 -96.0837 North  Level Estimated
01:15PM 29.3183 -96.0192 10° North  Level Estimated
01:16PM 29.3824 -95.9545 41° Northeast  Level Estimated
01:17PM 29.4464 -95.8898 65° Northeast  Level Estimated
01:18PM 29.5104 -95.8250 53° Northeast  Level Estimated
01:19PM 29.5744 -95.7601 62° Northeast  Level Estimated
01:20PM 29.6589 -95.7472 North  Level FlightAware Approximate
01:21PM 29.7435 -95.7343 North  Level FlightAware Approximate
01:22PM 29.7924 -95.6486 60° Northeast  Level FlightAware Approximate
01:23PM 29.8352 -95.5635 55° Northeast  Level FlightAware Approximate
01:24PM 29.8833 -95.4825 90° East  Level FlightAware Approximate
01:25PM 29.9302 -95.4042 49° Northeast  Level FlightAware Approximate
01:26PM 29.9833 -95.3333 49° Northeast  Level FlightAware Approximate
01:27PM 29.9844 -95.3414 49° Northeast  Level Estimated
01:28PM 29.9833 -95.3333 49° Northeast  Level FlightAware Approximate
01:29PM 29.9844 -95.3414 49° Northeast  Level Estimated
01:30PM 29.9833 -95.3333 49° Northeast  Level FlightAware Approximate
01:31PM 29.9844 -95.3414 49° Northeast  Level Estimated
01:32PM 29.9833 -95.3333 49° Northeast  Level FlightAware Approximate
01:33PM 29.9844 -95.3414 49° Northeast  Level Estimated
01:34PM 29.9833 -95.3333 49° Northeast  Level FlightAware Approximate
01:35PM 29.9844 -95.3414 49° Northeast  Level Estimated